Time;durP1;ratioP1;P1;durP2;ratioP2;P2;SDS_P1;SDS_P2;PMS_P1;PMS_P2;Temp;Humidity;BMP_temperature;BMP_pressure;BME280_temperature;BME280_humidity;BME280_pressure;Samples;Min_cycle;Max_cycle;Signal;HPM_P1;HPM_P2
2023/01/05 00:02:27;;;;;;;7.35;1.55;;;19.50;99.90;;;;;;5034105;28;20235;-78
2023/01/05 00:04:58;;;;;;;10.13;1.52;;;19.50;99.90;;;;;;5032623;28;20212;-82
2023/01/05 00:07:29;;;;;;;9.65;1.50;;;19.50;99.90;;;;;;5023941;28;20203;-86
2023/01/05 00:10:00;;;;;;;14.55;1.95;;;19.50;99.90;;;;;;5025831;28;20235;-84
2023/01/05 00:23:58;;;;;;;12.23;1.45;;;19.70;99.90;;;;;;5023847;28;20606;-87
2023/01/05 00:26:29;;;;;;;12.82;1.80;;;19.70;99.90;;;;;;5025211;28;20202;-86
2023/01/05 00:29:00;;;;;;;8.45;1.38;;;19.80;99.90;;;;;;5023386;28;20282;-82
2023/01/05 00:31:33;;;;;;;10.93;1.67;;;20.00;99.90;;;;;;5028980;28;20221;-80
2023/01/05 00:34:15;;;;;;;5.57;1.00;;;20.10;99.90;;;;;;5033152;28;20198;-81
2023/01/05 00:36:46;;;;;;;8.20;1.33;;;20.20;99.90;;;;;;5034621;28;20236;-79
2023/01/05 00:39:20;;;;;;;6.30;1.13;;;20.30;99.90;;;;;;5027582;28;20285;-88
2023/01/05 00:41:51;;;;;;;8.02;1.30;;;20.30;99.90;;;;;;5033345;28;20268;-81
2023/01/05 00:44:27;;;;;;;8.60;1.58;;;20.40;99.90;;;;;;5027697;28;20198;-85
2023/01/05 00:47:00;;;;;;;9.77;2.90;;;20.40;99.90;;;;;;5032595;28;20261;-87
2023/01/05 00:49:30;;;;;;;7.82;2.00;;;20.60;99.90;;;;;;5032700;28;20281;-86
2023/01/05 00:52:02;;;;;;;9.93;1.60;;;20.70;99.90;;;;;;5027051;28;20194;-89
2023/01/05 00:54:32;;;;;;;9.73;1.50;;;20.70;99.90;;;;;;5026798;28;20278;-84
2023/01/05 00:57:04;;;;;;;9.05;3.47;;;20.70;99.90;;;;;;5029812;28;20636;-87
2023/01/05 00:59:35;;;;;;;6.90;1.30;;;20.60;99.90;;;;;;5032253;28;20201;-80
2023/01/05 01:02:29;;;;;;;11.18;1.55;;;20.60;99.90;;;;;;5030509;28;20226;-83
2023/01/05 01:05:06;;;;;;;7.47;1.33;;;20.60;99.90;;;;;;5028954;28;20277;-89
2023/01/05 01:07:38;;;;;;;9.40;1.48;;;20.50;99.90;;;;;;5028277;28;20285;-91
2023/01/05 01:10:10;;;;;;;12.32;1.85;;;20.60;99.90;;;;;;5024400;28;20206;-90
2023/01/05 01:12:46;;;;;;;10.27;1.83;;;20.60;99.90;;;;;;5032964;28;20253;-89
2023/01/05 01:15:17;;;;;;;6.68;1.38;;;20.60;99.90;;;;;;5028994;28;20198;-82
2023/01/05 01:18:03;;;;;;;14.77;1.80;;;20.50;99.90;;;;;;5031020;28;20264;-87
2023/01/05 01:20:43;;;;;;;7.78;1.50;;;20.50;99.90;;;;;;5029444;28;20698;-89
2023/01/05 01:23:22;;;;;;;9.32;1.50;;;20.50;99.90;;;;;;5029454;28;20203;-87
2023/01/05 01:25:57;;;;;;;8.30;1.65;;;20.60;99.90;;;;;;5027942;28;20200;-91
2023/01/05 01:31:45;;;;;;;8.15;1.35;;;20.70;99.90;;;;;;5028072;28;20654;-91
2023/01/05 01:34:25;;;;;;;5.55;1.25;;;20.80;99.90;;;;;;5029675;28;20241;-91
2023/01/05 01:37:01;;;;;;;9.52;1.38;;;21.10;99.90;;;;;;5031039;28;20711;-84
2023/01/05 01:39:40;;;;;;;4.93;1.25;;;21.20;99.90;;;;;;5029042;28;20541;-85
2023/01/05 01:42:17;;;;;;;11.50;4.70;;;21.30;99.90;;;;;;5027646;28;20194;-95
2023/01/05 01:45:17;;;;;;;10.27;2.65;;;21.20;99.90;;;;;;5028710;28;20198;-91
2023/01/05 01:48:00;;;;;;;11.98;3.20;;;21.10;99.90;;;;;;5030912;28;20352;-88
2023/01/05 01:50:36;;;;;;;10.05;1.73;;;21.20;99.90;;;;;;5030759;28;20289;-85
2023/01/05 01:53:17;;;;;;;8.52;1.42;;;21.30;99.90;;;;;;5028880;28;20218;-90
2023/01/05 01:55:48;;;;;;;9.10;1.60;;;21.30;99.90;;;;;;5030287;28;20210;-84
2023/01/05 01:58:31;;;;;;;5.28;1.65;;;21.40;99.90;;;;;;5029086;28;20304;-88
2023/01/05 02:01:31;;;;;;;6.78;1.40;;;21.40;99.90;;;;;;5021686;28;20560;-93
2023/01/05 02:04:10;;;;;;;10.80;1.48;;;21.70;99.90;;;;;;5027885;28;20289;-91
2023/01/05 02:06:56;;;;;;;5.22;1.05;;;21.80;99.90;;;;;;5034319;28;20198;-88
2023/01/05 02:09:33;;;;;;;7.40;1.38;;;21.80;99.90;;;;;;5034121;28;20247;-90
2023/01/05 02:12:25;;;;;;;10.43;1.52;;;22.00;99.90;;;;;;5029326;28;20650;-88
2023/01/05 02:15:06;;;;;;;7.40;1.40;;;21.90;99.90;;;;;;5028285;28;20210;-82
2023/01/05 02:17:44;;;;;;;7.00;1.35;;;21.80;99.90;;;;;;5024245;28;20309;-79
2023/01/05 02:20:54;;;;;;;7.63;1.50;;;21.70;99.90;;;;;;5032651;28;20198;-89
2023/01/05 02:24:07;;;;;;;8.85;1.35;;;21.70;99.90;;;;;;5009587;28;20293;-92
2023/01/05 02:27:31;;;;;;;11.10;1.50;;;21.90;99.90;;;;;;4986850;28;20231;-87
2023/01/05 02:30:52;;;;;;;12.65;1.63;;;21.80;99.90;;;;;;5021682;28;20208;-95
2023/01/05 02:34:19;;;;;;;10.10;1.40;;;22.00;99.90;;;;;;4951337;28;20599;-90
2023/01/05 02:36:58;;;;;;;6.03;1.13;;;21.90;99.90;;;;;;4996410;28;20233;-89
2023/01/05 02:39:41;;;;;;;5.03;1.10;;;21.70;99.90;;;;;;5030118;28;20206;-88
2023/01/05 02:42:22;;;;;;;9.32;1.55;;;21.50;99.90;;;;;;5028813;28;20190;-87
2023/01/05 02:44:57;;;;;;;4.63;1.35;;;21.40;99.90;;;;;;5025662;28;20194;-88
2023/01/05 02:47:44;;;;;;;9.57;1.45;;;21.40;99.90;;;;;;5032518;28;20229;-92
2023/01/05 02:50:25;;;;;;;13.07;1.55;;;21.60;99.90;;;;;;5029870;28;20244;-83
2023/01/05 02:53:02;;;;;;;7.00;1.30;;;21.50;99.90;;;;;;5025826;28;20285;-86
2023/01/05 02:55:37;;;;;;;13.20;1.55;;;21.50;99.90;;;;;;5026091;28;20281;-85
2023/01/05 02:58:12;;;;;;;10.95;1.48;;;21.80;99.90;;;;;;5027582;28;20303;-90
2023/01/05 03:00:46;;;;;;;9.48;1.63;;;21.90;99.90;;;;;;5028224;28;20220;-86
2023/01/05 03:03:28;;;;;;;12.00;1.65;;;21.80;99.90;;;;;;5024374;28;20194;-91
2023/01/05 03:08:53;;;;;;;7.38;1.48;;;21.60;99.90;;;;;;5020511;28;20202;-84
2023/01/05 03:14:52;;;;;;;8.40;1.40;;;21.50;99.90;;;;;;5022947;28;20205;-89
2023/01/05 03:17:34;;;;;;;7.70;1.52;;;21.50;99.90;;;;;;5026938;28;20217;-89
2023/01/05 03:20:05;;;;;;;10.23;1.60;;;21.40;99.90;;;;;;5032480;28;20248;-86
2023/01/05 03:37:09;;;;;;;10.88;1.60;;;21.40;99.90;;;;;;5023817;28;20213;-86
2023/01/05 03:39:54;;;;;;;10.25;1.67;;;21.30;99.90;;;;;;5028731;28;20245;-87
2023/01/05 03:42:26;;;;;;;7.70;1.50;;;21.30;99.90;;;;;;5018599;28;20685;-90
2023/01/05 03:44:59;;;;;;;9.75;1.35;;;21.50;99.90;;;;;;5027792;28;20285;-87
2023/01/05 03:47:33;;;;;;;7.90;1.40;;;21.50;99.90;;;;;;5023777;28;20234;-90
2023/01/05 03:50:04;;;;;;;7.68;1.95;;;21.50;99.90;;;;;;5018555;28;20197;-87
2023/01/05 03:52:35;;;;;;;7.53;1.58;;;21.60;99.90;;;;;;5025067;28;20199;-87
2023/01/05 03:55:23;;;;;;;7.13;1.60;;;21.70;99.90;;;;;;5023961;28;20218;-85
2023/01/05 03:57:56;;;;;;;9.85;1.23;;;21.90;99.90;;;;;;5025311;28;20217;-86
2023/01/05 04:00:29;;;;;;;9.50;1.33;;;22.00;99.90;;;;;;5034514;28;20259;-89
2023/01/05 04:03:00;;;;;;;9.07;1.35;;;22.20;99.90;;;;;;5028263;28;20557;-87
2023/01/05 04:05:31;;;;;;;10.60;1.98;;;22.20;99.90;;;;;;5028656;28;20742;-84
2023/01/05 04:08:03;;;;;;;9.10;1.45;;;22.20;99.90;;;;;;5031398;28;20197;-86
2023/01/05 04:10:36;;;;;;;6.78;1.25;;;22.40;99.90;;;;;;5035292;28;20238;-86
2023/01/05 04:13:06;;;;;;;6.32;1.30;;;22.40;99.90;;;;;;5035547;28;20222;-85
2023/01/05 04:15:37;;;;;;;11.10;1.45;;;22.30;99.90;;;;;;5036371;28;20194;-88
2023/01/05 04:18:08;;;;;;;8.32;1.30;;;22.30;99.90;;;;;;5027485;28;20385;-87
2023/01/05 04:20:39;;;;;;;13.15;1.48;;;22.30;99.90;;;;;;5035831;28;20198;-85
2023/01/05 04:23:10;;;;;;;7.30;1.20;;;22.50;99.90;;;;;;5036614;28;20191;-84
2023/01/05 04:25:43;;;;;;;6.20;1.60;;;22.30;99.90;;;;;;5036410;28;20634;-85
2023/01/05 04:28:13;;;;;;;10.48;2.20;;;22.10;99.90;;;;;;5031821;28;20285;-87
2023/01/05 04:30:47;;;;;;;11.25;1.75;;;22.20;99.90;;;;;;5036486;28;20689;-88
2023/01/05 04:33:17;;;;;;;10.15;1.60;;;22.30;99.90;;;;;;5035109;28;20236;-89
2023/01/05 04:35:49;;;;;;;8.05;2.25;;;22.30;99.90;;;;;;5017557;28;20744;-86
2023/01/05 04:38:20;;;;;;;8.73;1.65;;;22.20;99.90;;;;;;5023408;28;20215;-87
2023/01/05 04:40:53;;;;;;;11.23;2.03;;;22.10;99.90;;;;;;5019319;28;20234;-87
2023/01/05 04:43:24;;;;;;;10.70;1.50;;;22.10;99.90;;;;;;5025177;28;20198;-85
2023/01/05 04:45:55;;;;;;;11.60;2.10;;;21.80;99.90;;;;;;5031893;28;20654;-86
2023/01/05 04:48:26;;;;;;;13.05;1.95;;;21.50;99.90;;;;;;5031414;28;20642;-89
2023/01/05 04:51:00;;;;;;;9.60;1.65;;;21.10;99.90;;;;;;5019313;28;20197;-89
2023/01/05 04:53:32;;;;;;;9.18;1.45;;;20.70;99.90;;;;;;5017215;28;20218;-89
2023/01/05 04:56:05;;;;;;;10.25;1.48;;;20.40;99.90;;;;;;5020255;28;20241;-89
2023/01/05 04:58:44;;;;;;;13.10;1.63;;;20.30;99.90;;;;;;5035674;28;20226;-90
2023/01/05 05:01:18;;;;;;;10.52;1.77;;;20.20;99.90;;;;;;5033407;28;20202;-86
2023/01/05 05:03:58;;;;;;;12.52;1.88;;;20.20;99.90;;;;;;5021566;28;20662;-90
2023/01/05 05:06:29;;;;;;;13.27;2.20;;;20.00;99.90;;;;;;5029781;28;20190;-83
2023/01/05 05:09:00;;;;;;;8.25;1.50;;;20.00;99.90;;;;;;5033746;28;20281;-84
2023/01/05 05:11:34;;;;;;;10.40;1.60;;;19.90;99.90;;;;;;5034186;28;20650;-88
2023/01/05 05:14:05;;;;;;;8.85;1.65;;;19.90;99.90;;;;;;5035854;28;20281;-90
2023/01/05 05:16:50;;;;;;;10.13;1.60;;;20.00;99.90;;;;;;5031866;28;20324;-82
2023/01/05 05:19:26;;;;;;;10.80;1.60;;;20.00;99.90;;;;;;5035343;28;20218;-84
2023/01/05 05:21:57;;;;;;;11.23;1.80;;;20.00;99.90;;;;;;5030954;28;20281;-84
2023/01/05 05:24:31;;;;;;;11.43;1.85;;;20.00;99.90;;;;;;5025038;28;20194;-89
2023/01/05 05:27:04;;;;;;;13.18;1.95;;;19.80;99.90;;;;;;5032396;28;20222;-83
2023/01/05 05:29:35;;;;;;;10.05;1.60;;;19.70;99.90;;;;;;5030572;28;20291;-85
2023/01/05 05:32:10;;;;;;;8.77;1.67;;;19.50;99.90;;;;;;5030572;28;20213;-89
2023/01/05 05:34:40;;;;;;;11.88;1.88;;;19.40;99.90;;;;;;5020269;28;20253;-86
2023/01/05 05:37:16;;;;;;;10.32;1.50;;;19.40;99.90;;;;;;5023548;28;20325;-85
2023/01/05 05:39:47;;;;;;;8.15;1.85;;;19.40;99.90;;;;;;5032300;28;20207;-86
2023/01/05 05:42:26;;;;;;;10.35;1.67;;;19.40;99.90;;;;;;5022579;28;20313;-84
2023/01/05 05:44:57;;;;;;;8.77;1.55;;;19.40;99.90;;;;;;5023526;28;20260;-90
2023/01/05 05:47:28;;;;;;;10.75;1.73;;;19.40;99.90;;;;;;5022450;28;20230;-91
2023/01/05 05:49:59;;;;;;;12.18;2.25;;;19.50;99.90;;;;;;5024359;28;20654;-88
2023/01/05 05:52:31;;;;;;;10.00;1.55;;;19.50;99.90;;;;;;5025644;28;20625;-86
2023/01/05 05:55:02;;;;;;;8.65;1.80;;;19.50;99.90;;;;;;5033038;28;20204;-88
2023/01/05 05:57:35;;;;;;;9.98;1.83;;;19.50;99.90;;;;;;5027381;28;20248;-90
2023/01/05 06:00:06;;;;;;;7.75;1.35;;;19.50;99.90;;;;;;5021647;28;20210;-83
2023/01/05 06:02:42;;;;;;;5.47;1.17;;;19.50;99.90;;;;;;5015006;28;20718;-89
2023/01/05 06:05:13;;;;;;;7.95;1.50;;;19.30;99.90;;;;;;5019999;28;20221;-87
2023/01/05 06:07:44;;;;;;;12.15;1.67;;;19.40;99.90;;;;;;5015191;28;20229;-88
2023/01/05 06:10:18;;;;;;;10.43;1.23;;;19.40;99.90;;;;;;5017727;28;20206;-84
2023/01/05 06:12:51;;;;;;;7.72;1.42;;;19.40;99.90;;;;;;5014919;28;20217;-91
2023/01/05 06:15:22;;;;;;;11.23;1.40;;;19.40;99.90;;;;;;5022337;28;20289;-91
2023/01/05 06:17:57;;;;;;;9.57;1.60;;;19.50;99.90;;;;;;5032273;28;20193;-87
2023/01/05 06:20:28;;;;;;;6.53;1.45;;;19.40;99.90;;;;;;5015138;28;20201;-86
2023/01/05 06:22:59;;;;;;;8.00;1.30;;;19.50;99.90;;;;;;5014685;28;20646;-88
2023/01/05 06:25:30;;;;;;;12.98;1.67;;;19.40;99.90;;;;;;5017847;28;20237;-89
2023/01/05 06:28:03;;;;;;;8.60;1.30;;;19.30;99.90;;;;;;5023997;28;20194;-84
2023/01/05 06:30:34;;;;;;;10.68;1.58;;;19.10;99.90;;;;;;5025008;28;20290;-83
2023/01/05 06:33:08;;;;;;;9.70;1.38;;;18.80;99.90;;;;;;5020848;28;20684;-87
2023/01/05 06:35:38;;;;;;;8.80;1.30;;;18.60;99.90;;;;;;5028825;28;20637;-92
2023/01/05 06:38:14;;;;;;;7.07;1.20;;;18.50;99.90;;;;;;5024216;28;20206;-88
2023/01/05 06:40:47;;;;;;;6.03;1.20;;;18.40;99.90;;;;;;5018822;28;20210;-93
2023/01/05 06:43:20;;;;;;;7.55;1.35;;;18.40;99.90;;;;;;5030448;28;20216;-88
2023/01/05 06:45:51;;;;;;;6.95;1.27;;;18.50;99.90;;;;;;5031866;28;20202;-91
2023/01/05 06:48:25;;;;;;;10.25;1.90;;;18.50;99.90;;;;;;5033959;28;20226;-87
2023/01/05 06:50:57;;;;;;;10.05;1.25;;;18.60;99.90;;;;;;5030210;28;20210;-85
2023/01/05 06:53:33;;;;;;;6.70;1.30;;;18.60;99.90;;;;;;5028118;28;20674;-90
2023/01/05 06:56:04;;;;;;;9.85;1.30;;;18.70;99.90;;;;;;5028376;28;20194;-88
2023/01/05 06:58:37;;;;;;;11.18;1.60;;;18.80;99.90;;;;;;5027981;28;20257;-91
2023/01/05 07:01:08;;;;;;;8.63;1.50;;;18.90;99.90;;;;;;5016257;28;20237;-85
2023/01/05 07:03:39;;;;;;;10.43;1.42;;;18.90;99.90;;;;;;5020796;28;20821;-86
2023/01/05 07:06:10;;;;;;;9.02;1.20;;;19.00;99.90;;;;;;5023550;28;20262;-88
2023/01/05 07:08:41;;;;;;;9.82;1.55;;;19.00;99.90;;;;;;5029568;28;20237;-87
2023/01/05 07:11:12;;;;;;;10.18;1.50;;;19.10;99.90;;;;;;5030102;28;20244;-89
2023/01/05 07:13:49;;;;;;;5.90;1.02;;;19.10;99.90;;;;;;5021591;28;20194;-88
2023/01/05 07:16:20;;;;;;;8.93;1.30;;;19.10;99.90;;;;;;5027260;28;20216;-89
2023/01/05 07:18:52;;;;;;;6.03;1.20;;;19.20;99.90;;;;;;5022658;28;20301;-89
2023/01/05 07:21:25;;;;;;;5.40;1.05;;;19.20;99.90;;;;;;5027461;28;20205;-86
2023/01/05 07:23:56;;;;;;;7.07;1.10;;;19.20;99.90;;;;;;5030754;28;20212;-81
2023/01/05 07:26:29;;;;;;;8.45;1.00;;;19.20;99.90;;;;;;5031206;28;20218;-84
2023/01/05 07:29:01;;;;;;;6.30;1.10;;;19.20;99.90;;;;;;5026495;28;20206;-86
2023/01/05 07:31:32;;;;;;;6.35;1.15;;;19.10;99.90;;;;;;5030758;28;20716;-87
2023/01/05 07:34:03;;;;;;;8.60;1.17;;;19.20;99.90;;;;;;5028346;28;20635;-89
2023/01/05 07:36:35;;;;;;;8.23;1.02;;;19.10;99.90;;;;;;5028753;28;20194;-91
2023/01/05 07:39:06;;;;;;;7.65;1.20;;;19.10;99.90;;;;;;5029143;28;20823;-86
2023/01/05 07:41:37;;;;;;;6.03;0.85;;;19.10;99.90;;;;;;5037770;28;20222;-90
2023/01/05 07:44:10;;;;;;;7.85;0.90;;;19.10;99.90;;;;;;5024566;28;20230;-88
2023/01/05 07:46:41;;;;;;;7.25;1.02;;;19.10;99.90;;;;;;5037774;28;20237;-84
2023/01/05 07:49:11;;;;;;;11.02;1.38;;;19.10;99.90;;;;;;5032208;28;20210;-86
2023/01/05 07:51:42;;;;;;;5.63;1.27;;;19.20;99.90;;;;;;5029365;28;20561;-86
2023/01/05 07:54:13;;;;;;;6.07;0.90;;;19.10;99.90;;;;;;5027967;28;20206;-90
2023/01/05 07:56:44;;;;;;;7.50;1.10;;;19.10;99.90;;;;;;5032998;28;20618;-90
2023/01/05 07:59:17;;;;;;;6.60;1.15;;;19.10;99.90;;;;;;5035936;28;20213;-87
2023/01/05 08:01:48;;;;;;;5.28;1.00;;;19.10;99.90;;;;;;5033224;28;20717;-88
2023/01/05 08:04:18;;;;;;;7.13;1.20;;;19.10;99.90;;;;;;5027135;28;20293;-85
2023/01/05 08:06:51;;;;;;;7.97;1.50;;;19.10;99.90;;;;;;5032066;28;20247;-88
2023/01/05 08:12:08;;;;;;;6.32;1.30;;;19.10;99.90;;;;;;5033103;28;20334;-84
2023/01/05 08:14:41;;;;;;;9.13;1.00;;;19.10;99.90;;;;;;5033516;28;20204;-88
2023/01/05 08:17:13;;;;;;;8.43;1.10;;;19.00;99.90;;;;;;5034867;28;20217;-85
2023/01/05 08:19:44;;;;;;;7.72;1.13;;;19.00;99.90;;;;;;5032310;28;20222;-82
2023/01/05 08:22:15;;;;;;;7.07;1.20;;;19.00;99.90;;;;;;5035392;28;20285;-85
2023/01/05 08:24:46;;;;;;;5.95;0.90;;;18.90;99.90;;;;;;5034521;28;20199;-86
2023/01/05 08:27:17;;;;;;;6.70;1.30;;;18.90;99.90;;;;;;5029929;28;20305;-84
2023/01/05 08:29:50;;;;;;;6.18;1.20;;;18.90;99.90;;;;;;5034031;28;20590;-86
2023/01/05 08:32:21;;;;;;;7.25;1.33;;;18.90;99.90;;;;;;5032144;28;20205;-85
2023/01/05 08:34:51;;;;;;;8.05;1.13;;;18.90;99.90;;;;;;5033396;28;20202;-87
2023/01/05 08:37:22;;;;;;;8.07;1.00;;;18.80;99.90;;;;;;5034437;28;20277;-86
2023/01/05 08:39:53;;;;;;;7.72;1.02;;;18.80;99.90;;;;;;5034377;28;20301;-87
2023/01/05 08:42:33;;;;;;;7.20;1.10;;;18.80;99.90;;;;;;5033209;28;20197;-85
2023/01/05 08:45:06;;;;;;;9.45;1.30;;;18.80;99.90;;;;;;5033940;28;20200;-86
2023/01/05 08:47:37;;;;;;;6.50;1.05;;;18.80;99.90;;;;;;5028816;28;20296;-86
2023/01/05 08:50:08;;;;;;;8.30;1.05;;;18.80;99.90;;;;;;5027798;28;20199;-89
2023/01/05 08:52:39;;;;;;;7.35;0.90;;;18.80;99.90;;;;;;5030723;28;20217;-85
2023/01/05 08:55:11;;;;;;;6.90;1.20;;;18.80;99.90;;;;;;5032257;28;20198;-87
2023/01/05 08:57:41;;;;;;;8.80;1.15;;;18.80;99.90;;;;;;5024305;28;20217;-87
2023/01/05 09:00:16;;;;;;;6.32;1.42;;;18.80;99.90;;;;;;5027531;28;20229;-88
2023/01/05 09:02:47;;;;;;;7.05;1.05;;;18.70;99.90;;;;;;5030916;28;20201;-85
2023/01/05 09:05:18;;;;;;;9.40;1.15;;;18.70;99.90;;;;;;5028401;28;20286;-83
2023/01/05 09:07:48;;;;;;;5.95;0.98;;;18.70;99.90;;;;;;5031763;28;20205;-80
2023/01/05 09:10:20;;;;;;;7.78;1.10;;;18.70;99.90;;;;;;5030140;28;20230;-89
2023/01/05 09:12:51;;;;;;;10.05;1.40;;;18.70;99.90;;;;;;5027557;28;20194;-89
2023/01/05 09:15:23;;;;;;;6.10;1.10;;;18.70;99.90;;;;;;5033059;28;20277;-86
2023/01/05 09:17:54;;;;;;;9.85;1.63;;;18.70;99.90;;;;;;5030317;28;20224;-86
2023/01/05 09:20:25;;;;;;;6.72;1.00;;;18.60;99.90;;;;;;5024332;28;20714;-89
2023/01/05 09:22:56;;;;;;;8.82;1.20;;;18.60;99.90;;;;;;5023051;28;20666;-88
2023/01/05 09:25:27;;;;;;;6.22;1.10;;;18.60;99.90;;;;;;5030341;28;20273;-86
2023/01/05 09:27:58;;;;;;;8.25;1.40;;;18.60;99.90;;;;;;5026135;28;20321;-82
2023/01/05 09:30:31;;;;;;;40.05;24.90;;;18.60;99.90;;;;;;5029792;28;20224;-84
2023/01/05 09:33:01;;;;;;;8.93;3.78;;;18.60;99.90;;;;;;5030576;28;20194;-83
2023/01/05 09:35:32;;;;;;;10.25;2.40;;;18.60;99.90;;;;;;5024944;28;20195;-85
2023/01/05 09:38:03;;;;;;;10.13;1.52;;;18.50;99.90;;;;;;5034169;28;20278;-83
2023/01/05 09:40:36;;;;;;;8.32;1.50;;;18.50;99.90;;;;;;5027603;28;20313;-83
2023/01/05 09:43:07;;;;;;;7.05;1.60;;;18.50;99.90;;;;;;5021581;28;20202;-82
2023/01/05 09:45:40;;;;;;;12.70;4.60;;;18.50;99.90;;;;;;5027905;28;20510;-83
2023/01/05 09:48:18;;;;;;;32.45;16.77;;;18.50;99.90;;;;;;5025161;28;20324;-87
2023/01/05 09:50:50;;;;;;;9.93;2.42;;;18.50;99.90;;;;;;5033762;28;20300;-83
2023/01/05 09:53:27;;;;;;;7.30;1.92;;;18.50;99.90;;;;;;5032428;28;20632;-86
2023/01/05 09:55:59;;;;;;;14.02;2.00;;;18.50;99.90;;;;;;5029218;28;20286;-85
2023/01/05 09:58:35;;;;;;;4.88;1.55;;;18.50;99.90;;;;;;5033033;28;20198;-85
2023/01/05 10:01:13;;;;;;;11.57;1.60;;;18.50;99.90;;;;;;5033701;28;20221;-84
2023/01/05 10:03:47;;;;;;;7.07;1.30;;;18.50;99.90;;;;;;5029034;28;20198;-84
2023/01/05 10:06:18;;;;;;;7.07;1.25;;;18.50;99.90;;;;;;5027894;28;20204;-84
2023/01/05 10:08:52;;;;;;;8.15;1.40;;;18.50;99.90;;;;;;5031354;28;20194;-85
2023/01/05 10:14:16;;;;;;;6.53;1.20;;;18.50;99.90;;;;;;5026989;28;20268;-84
2023/01/05 10:16:49;;;;;;;6.75;1.20;;;18.50;99.90;;;;;;5027868;28;20309;-83
2023/01/05 10:19:22;;;;;;;6.95;1.13;;;18.50;99.90;;;;;;5026029;28;20301;-83
2023/01/05 10:22:00;;;;;;;8.60;1.45;;;18.50;99.90;;;;;;5032191;28;20202;-81
2023/01/05 10:24:42;;;;;;;6.65;1.10;;;18.50;99.90;;;;;;5034054;28;20197;-83
2023/01/05 10:27:16;;;;;;;9.07;1.48;;;18.50;99.90;;;;;;5030404;28;20225;-83
2023/01/05 10:29:48;;;;;;;5.40;1.08;;;18.50;99.90;;;;;;5029958;28;20472;-82
2023/01/05 10:32:26;;;;;;;9.48;1.33;;;18.40;99.90;;;;;;5016799;28;20202;-83
2023/01/05 10:35:03;;;;;;;7.25;1.00;;;18.40;99.90;;;;;;5021558;28;20205;-83
2023/01/05 10:38:02;;;;;;;9.13;1.15;;;18.40;99.90;;;;;;5031403;28;20202;-83
2023/01/05 10:40:45;;;;;;;5.03;1.00;;;18.40;99.90;;;;;;5036009;28;20214;-83
2023/01/05 10:43:50;;;;;;;9.57;1.40;;;18.40;99.90;;;;;;5039030;28;20622;-83
2023/01/05 10:46:21;;;;;;;10.05;1.40;;;18.40;99.90;;;;;;4982794;28;20632;-86
2023/01/05 10:48:54;;;;;;;5.63;1.10;;;18.30;99.90;;;;;;5033638;28;20205;-84
2023/01/05 10:51:28;;;;;;;11.07;1.42;;;18.30;99.90;;;;;;5033453;28;20273;-83
2023/01/05 10:53:59;;;;;;;6.25;1.20;;;18.30;99.90;;;;;;5033373;28;20281;-82
2023/01/05 10:56:31;;;;;;;7.32;1.00;;;18.30;99.90;;;;;;5032846;28;20688;-82
2023/01/05 10:59:14;;;;;;;9.23;1.20;;;18.30;99.90;;;;;;5033310;28;20650;-84
2023/01/05 11:01:48;;;;;;;6.32;1.48;;;18.30;99.90;;;;;;5027158;28;20194;-83
2023/01/05 11:04:23;;;;;;;9.68;1.17;;;18.30;99.90;;;;;;5033275;28;20194;-84
2023/01/05 11:07:03;;;;;;;8.55;1.40;;;18.30;99.90;;;;;;5033049;28;20202;-83
2023/01/05 11:09:35;;;;;;;9.48;1.38;;;18.20;99.90;;;;;;5033525;28;20205;-83
2023/01/05 11:12:06;;;;;;;9.18;1.63;;;18.20;99.90;;;;;;5032525;28;20195;-83
2023/01/05 11:14:44;;;;;;;5.25;1.20;;;18.20;99.90;;;;;;5022060;28;20199;-84
2023/01/05 11:17:21;;;;;;;6.35;1.30;;;18.10;99.90;;;;;;5029224;28;20285;-82
2023/01/05 11:19:55;;;;;;;5.75;1.17;;;18.10;99.90;;;;;;5033121;28;20236;-83
2023/01/05 11:22:36;;;;;;;11.05;1.30;;;18.10;99.90;;;;;;5033152;28;20284;-82
2023/01/05 11:25:28;;;;;;;8.85;1.40;;;18.10;99.90;;;;;;5032820;28;20677;-83
2023/01/05 11:28:14;;;;;;;6.70;1.25;;;18.10;99.90;;;;;;5033072;28;20687;-83
2023/01/05 11:30:58;;;;;;;7.28;1.02;;;18.00;99.90;;;;;;5032374;28;20202;-82
2023/01/05 11:33:32;;;;;;;4.63;1.10;;;18.10;99.90;;;;;;5021284;28;20194;-82
2023/01/05 11:36:06;;;;;;;9.93;1.60;;;18.10;99.90;;;;;;5032824;28;20675;-83
2023/01/05 11:38:37;;;;;;;6.20;1.45;;;18.10;99.90;;;;;;5027806;28;20198;-83
2023/01/05 11:41:14;;;;;;;4.88;1.10;;;18.10;99.90;;;;;;5030324;28;20218;-81
2023/01/05 11:43:48;;;;;;;3.38;0.93;;;18.10;99.90;;;;;;5031496;28;20202;-84
2023/01/05 11:46:20;;;;;;;8.90;1.30;;;18.10;99.90;;;;;;5017982;28;20202;-82
2023/01/05 11:48:55;;;;;;;6.10;1.10;;;18.10;99.90;;;;;;5010440;28;20285;-83
2023/01/05 11:51:41;;;;;;;8.63;1.33;;;18.10;99.90;;;;;;5024512;28;20216;-83
2023/01/05 11:54:35;;;;;;;9.73;1.42;;;18.10;99.90;;;;;;5032621;28;20201;-80
2023/01/05 11:57:19;;;;;;;8.95;1.33;;;18.00;99.90;;;;;;5032752;28;20281;-85
2023/01/05 11:59:52;;;;;;;8.05;1.35;;;18.00;99.90;;;;;;5032804;28;20305;-83
2023/01/05 12:02:50;;;;;;;6.80;1.20;;;18.00;99.90;;;;;;5032253;28;20718;-83
2023/01/05 12:05:27;;;;;;;5.43;1.10;;;18.00;99.90;;;;;;5029230;28;20633;-84
2023/01/05 12:08:08;;;;;;;6.82;1.10;;;17.90;99.90;;;;;;5032705;28;20206;-82
2023/01/05 12:11:04;;;;;;;7.80;1.25;;;17.90;99.90;;;;;;5024995;28;20292;-81
2023/01/05 12:14:07;;;;;;;5.13;1.30;;;17.90;99.90;;;;;;5023796;28;20198;-81
2023/01/05 12:16:47;;;;;;;8.15;1.40;;;17.90;99.90;;;;;;5026042;28;20288;-84
2023/01/05 12:19:52;;;;;;;7.38;1.30;;;17.80;99.90;;;;;;5029881;28;20216;-83
2023/01/05 12:22:52;;;;;;;6.88;1.25;;;17.80;99.90;;;;;;5024900;28;20198;-83
2023/01/05 12:25:51;;;;;;;7.80;1.42;;;17.80;99.90;;;;;;5021807;28;20559;-82
2023/01/05 12:28:40;;;;;;;6.85;1.25;;;17.80;99.90;;;;;;5035562;28;20216;-82
2023/01/05 12:31:22;;;;;;;6.53;1.42;;;17.70;99.90;;;;;;5032989;28;20304;-81
2023/01/05 12:34:14;;;;;;;8.20;1.30;;;17.70;99.90;;;;;;5028459;28;20202;-84
2023/01/05 12:36:58;;;;;;;7.15;1.10;;;17.70;99.90;;;;;;5035537;28;20281;-83
2023/01/05 12:40:00;;;;;;;8.40;1.20;;;17.70;99.90;;;;;;5033934;28;20281;-83
2023/01/05 12:43:04;;;;;;;4.78;1.10;;;17.70;99.90;;;;;;5020349;28;20195;-83
2023/01/05 12:45:56;;;;;;;6.68;1.10;;;17.70;99.90;;;;;;5017239;28;20205;-82
2023/01/05 12:48:30;;;;;;;4.50;0.90;;;17.70;99.90;;;;;;5020638;28;20266;-82
2023/01/05 12:51:10;;;;;;;7.82;1.52;;;17.70;99.90;;;;;;5016318;28;20198;-82
2023/01/05 12:53:55;;;;;;;5.50;1.00;;;17.70;99.90;;;;;;5024636;28;20186;-82
2023/01/05 12:56:30;;;;;;;5.70;1.35;;;17.70;99.90;;;;;;5017617;28;20652;-83
2023/01/05 12:59:16;;;;;;;6.50;1.30;;;17.70;99.90;;;;;;5015998;28;20716;-84
2023/01/05 13:01:51;;;;;;;5.82;1.25;;;17.70;99.90;;;;;;5016164;28;20297;-83
2023/01/05 13:04:37;;;;;;;6.18;1.20;;;17.70;99.90;;;;;;5016017;28;20194;-82
2023/01/05 13:07:17;;;;;;;6.90;1.17;;;17.60;99.90;;;;;;5015936;28;20201;-83
2023/01/05 13:09:54;;;;;;;8.38;1.38;;;17.60;99.90;;;;;;5015875;28;20273;-85
2023/01/05 13:12:25;;;;;;;7.40;1.33;;;17.60;99.90;;;;;;5031062;28;20208;-83
2023/01/05 13:15:15;;;;;;;7.82;1.38;;;17.60;99.90;;;;;;5035348;28;20201;-84
2023/01/05 13:17:50;;;;;;;6.63;1.15;;;17.60;99.90;;;;;;5020754;28;20203;-84
2023/01/05 13:20:29;;;;;;;5.97;1.40;;;17.60;99.90;;;;;;5035145;28;20217;-83
2023/01/05 13:23:05;;;;;;;4.40;1.15;;;17.60;99.90;;;;;;5035488;28;20284;-83
2023/01/05 13:25:43;;;;;;;6.53;1.33;;;17.50;99.90;;;;;;5035474;28;20276;-85
2023/01/05 13:28:24;;;;;;;6.28;1.05;;;17.50;99.90;;;;;;5029690;28;20297;-85
2023/01/05 13:31:13;;;;;;;7.68;1.20;;;17.50;99.90;;;;;;5015279;28;20195;-82
2023/01/05 13:34:22;;;;;;;9.13;1.15;;;17.50;99.90;;;;;;5026774;28;20285;-83
2023/01/05 13:37:17;;;;;;;6.35;1.20;;;17.50;99.90;;;;;;5026261;28;20206;-82
2023/01/05 13:40:06;;;;;;;8.63;1.65;;;17.50;99.90;;;;;;5033242;28;20288;-85
2023/01/05 13:43:03;;;;;;;6.22;1.17;;;17.50;99.90;;;;;;5015393;28;20285;-82
2023/01/05 13:46:08;;;;;;;5.57;1.23;;;17.50;99.90;;;;;;5020056;28;20264;-82
2023/01/05 13:48:56;;;;;;;4.97;1.17;;;17.50;99.90;;;;;;5015202;28;20235;-82
2023/01/05 13:51:56;;;;;;;5.53;1.05;;;17.40;99.90;;;;;;5015153;28;20187;-82
2023/01/05 13:54:42;;;;;;;5.05;1.10;;;17.40;99.90;;;;;;5010696;28;20627;-83
2023/01/05 13:57:17;;;;;;;6.53;1.30;;;17.40;99.90;;;;;;4998321;28;20191;-83
2023/01/05 13:59:53;;;;;;;3.58;1.17;;;17.50;99.90;;;;;;5014819;28;20560;-81
2023/01/05 14:02:35;;;;;;;6.55;1.05;;;17.50;99.90;;;;;;5021937;28;20206;-82
2023/01/05 14:05:09;;;;;;;7.60;1.20;;;17.40;99.90;;;;;;5034011;28;20186;-83
2023/01/05 14:07:43;;;;;;;7.05;1.20;;;17.40;99.90;;;;;;5014894;28;20199;-82
2023/01/05 14:10:26;;;;;;;5.35;1.20;;;17.40;99.90;;;;;;5014843;28;20278;-81
2023/01/05 14:12:56;;;;;;;7.53;1.00;;;17.40;99.90;;;;;;4997934;28;20278;-82
2023/01/05 14:15:37;;;;;;;4.63;0.85;;;17.40;99.90;;;;;;5014643;28;20274;-83
2023/01/05 14:18:11;;;;;;;7.28;1.08;;;17.40;99.90;;;;;;5023610;28;20194;-82